sensor_id;sensor_type;location;lat;lon;timestamp;pressure;altitude;pressure_sealevel;temperature;humidity
7111;BME280;3597;42.650;23.386;2024-02-26T00:02:16;95713.63;;;9.96;61.40
7111;BME280;3597;42.650;23.386;2024-02-26T00:04:42;95706.63;;;9.90;61.50
7111;BME280;3597;42.650;23.386;2024-02-26T00:07:08;95702.69;;;9.91;61.42
7111;BME280;3597;42.650;23.386;2024-02-26T00:09:33;95693.03;;;9.90;61.38
7111;BME280;3597;42.650;23.386;2024-02-26T00:12:04;95722.91;;;10.04;61.11
7111;BME280;3597;42.650;23.386;2024-02-26T00:14:31;95698.47;;;9.90;61.67
7111;BME280;3597;42.650;23.386;2024-02-26T00:16:57;95706.97;;;9.97;61.54
7111;BME280;3597;42.650;23.386;2024-02-26T00:19:22;95690.06;;;9.73;62.14
7111;BME280;3597;42.650;23.386;2024-02-26T00:21:48;95706.44;;;9.78;62.51
7111;BME280;3597;42.650;23.386;2024-02-26T00:24:13;95687.38;;;9.58;62.71
7111;BME280;3597;42.650;23.386;2024-02-26T00:26:39;95685.75;;;9.66;62.51
7111;BME280;3597;42.650;23.386;2024-02-26T00:29:05;95700.84;;;9.67;62.51
7111;BME280;3597;42.650;23.386;2024-02-26T00:31:30;95688.56;;;9.57;62.64
7111;BME280;3597;42.650;23.386;2024-02-26T00:33:56;95691.84;;;9.61;62.74
7111;BME280;3597;42.650;23.386;2024-02-26T00:36:22;95718.91;;;9.70;62.96
7111;BME280;3597;42.650;23.386;2024-02-26T00:38:48;95674.16;;;9.51;62.93
7111;BME280;3597;42.650;23.386;2024-02-26T00:41:20;95708.72;;;9.65;63.25
7111;BME280;3597;42.650;23.386;2024-02-26T00:43:46;95701.69;;;9.59;63.78
7111;BME280;3597;42.650;23.386;2024-02-26T00:46:12;95699.63;;;9.68;63.22
7111;BME280;3597;42.650;23.386;2024-02-26T00:48:37;95697.16;;;9.70;63.30
7111;BME280;3597;42.650;23.386;2024-02-26T00:51:03;95694.84;;;9.78;63.05
7111;BME280;3597;42.650;23.386;2024-02-26T00:53:33;95660.72;;;9.62;63.24
7111;BME280;3597;42.650;23.386;2024-02-26T00:55:59;95666.53;;;9.70;63.51
7111;BME280;3597;42.650;23.386;2024-02-26T00:58:26;95673.94;;;9.84;63.38
7111;BME280;3597;42.650;23.386;2024-02-26T01:00:52;95664.75;;;9.81;62.81
7111;BME280;3597;42.650;23.386;2024-02-26T01:03:18;95652.19;;;9.84;62.57
7111;BME280;3597;42.650;23.386;2024-02-26T01:05:44;95677.66;;;10.01;62.96
7111;BME280;3597;42.650;23.386;2024-02-26T01:08:09;95651.78;;;9.91;62.81
7111;BME280;3597;42.650;23.386;2024-02-26T01:10:35;95674.06;;;10.10;62.50
7111;BME280;3597;42.650;23.386;2024-02-26T01:13:01;95677.06;;;10.12;62.30
7111;BME280;3597;42.650;23.386;2024-02-26T01:15:27;95652.44;;;10.01;62.19
7111;BME280;3597;42.650;23.386;2024-02-26T01:17:53;95642.34;;;9.86;62.38
7111;BME280;3597;42.650;23.386;2024-02-26T01:20:19;95663.59;;;9.88;62.74
7111;BME280;3597;42.650;23.386;2024-02-26T01:22:44;95675.56;;;9.96;63.05
7111;BME280;3597;42.650;23.386;2024-02-26T01:25:10;95679.34;;;9.99;62.62
7111;BME280;3597;42.650;23.386;2024-02-26T01:27:36;95674.09;;;9.95;62.74
7111;BME280;3597;42.650;23.386;2024-02-26T01:30:05;95664.53;;;10.00;62.25
7111;BME280;3597;42.650;23.386;2024-02-26T01:32:31;95660.41;;;9.90;62.39
7111;BME280;3597;42.650;23.386;2024-02-26T01:34:57;95644.31;;;9.86;62.83
7111;BME280;3597;42.650;23.386;2024-02-26T01:37:23;95651.97;;;9.87;62.83
7111;BME280;3597;42.650;23.386;2024-02-26T01:39:49;95666.66;;;9.96;62.58
7111;BME280;3597;42.650;23.386;2024-02-26T01:42:14;95661.13;;;10.05;62.19
7111;BME280;3597;42.650;23.386;2024-02-26T01:44:40;95645.31;;;9.88;63.01
7111;BME280;3597;42.650;23.386;2024-02-26T01:47:07;95666.41;;;9.94;63.19
7111;BME280;3597;42.650;23.386;2024-02-26T01:49:35;95655.44;;;9.88;62.54
7111;BME280;3597;42.650;23.386;2024-02-26T01:52:02;95681.56;;;10.00;63.52
7111;BME280;3597;42.650;23.386;2024-02-26T01:54:29;95655.94;;;9.86;63.10
7111;BME280;3597;42.650;23.386;2024-02-26T01:56:56;95655.16;;;10.01;62.65
7111;BME280;3597;42.650;23.386;2024-02-26T01:59:23;95645.84;;;10.07;62.42
7111;BME280;3597;42.650;23.386;2024-02-26T02:01:55;95655.19;;;10.21;62.25
7111;BME280;3597;42.650;23.386;2024-02-26T02:04:22;95650.81;;;10.09;61.30
7111;BME280;3597;42.650;23.386;2024-02-26T02:06:48;95678.94;;;10.41;58.58
7111;BME280;3597;42.650;23.386;2024-02-26T02:09:14;95673.38;;;10.50;57.85
7111;BME280;3597;42.650;23.386;2024-02-26T02:11:40;95653.63;;;10.55;55.30
7111;BME280;3597;42.650;23.386;2024-02-26T02:14:06;95687.38;;;10.83;56.62
7111;BME280;3597;42.650;23.386;2024-02-26T02:16:32;95675.81;;;10.88;57.25
7111;BME280;3597;42.650;23.386;2024-02-26T02:18:58;95664.47;;;10.70;58.77
7111;BME280;3597;42.650;23.386;2024-02-26T02:21:24;95665.81;;;10.80;58.65
7111;BME280;3597;42.650;23.386;2024-02-26T02:23:49;95676.38;;;10.98;55.91
7111;BME280;3597;42.650;23.386;2024-02-26T02:26:16;95660.34;;;11.00;54.88
7111;BME280;3597;42.650;23.386;2024-02-26T02:28:42;95684.09;;;11.25;53.10
7111;BME280;3597;42.650;23.386;2024-02-26T02:31:09;95682.38;;;11.22;53.12
7111;BME280;3597;42.650;23.386;2024-02-26T02:33:34;95689.03;;;11.47;50.76
7111;BME280;3597;42.650;23.386;2024-02-26T02:36:00;95697.34;;;11.64;51.31
7111;BME280;3597;42.650;23.386;2024-02-26T02:38:26;95701.34;;;11.68;51.94
7111;BME280;3597;42.650;23.386;2024-02-26T02:40:53;95673.97;;;11.57;50.97
7111;BME280;3597;42.650;23.386;2024-02-26T02:43:18;95665.91;;;11.68;49.79
7111;BME280;3597;42.650;23.386;2024-02-26T02:45:44;95661.75;;;11.73;50.03
7111;BME280;3597;42.650;23.386;2024-02-26T02:48:10;95683.41;;;11.82;50.19
7111;BME280;3597;42.650;23.386;2024-02-26T02:50:36;95681.41;;;11.83;49.79
7111;BME280;3597;42.650;23.386;2024-02-26T02:53:02;95657.25;;;11.70;50.42
7111;BME280;3597;42.650;23.386;2024-02-26T02:55:27;95661.75;;;11.73;50.53
7111;BME280;3597;42.650;23.386;2024-02-26T02:57:53;95670.94;;;11.75;50.89
7111;BME280;3597;42.650;23.386;2024-02-26T03:00:19;95667.72;;;11.77;50.48
7111;BME280;3597;42.650;23.386;2024-02-26T03:02:45;95659.44;;;11.66;52.02
7111;BME280;3597;42.650;23.386;2024-02-26T03:05:11;95658.66;;;11.60;52.08
7111;BME280;3597;42.650;23.386;2024-02-26T03:07:37;95676.53;;;11.66;51.78
7111;BME280;3597;42.650;23.386;2024-02-26T03:10:03;95652.84;;;11.47;51.79
7111;BME280;3597;42.650;23.386;2024-02-26T03:12:30;95673.50;;;11.59;52.21
7111;BME280;3597;42.650;23.386;2024-02-26T03:14:56;95673.78;;;11.61;52.67
7111;BME280;3597;42.650;23.386;2024-02-26T03:17:22;95646.41;;;11.50;52.16
7111;BME280;3597;42.650;23.386;2024-02-26T03:19:49;95655.59;;;11.47;53.01
7111;BME280;3597;42.650;23.386;2024-02-26T03:22:19;95668.47;;;11.46;53.42
7111;BME280;3597;42.650;23.386;2024-02-26T03:24:45;95667.44;;;11.44;53.60
7111;BME280;3597;42.650;23.386;2024-02-26T03:27:10;95660.66;;;11.33;54.41
7111;BME280;3597;42.650;23.386;2024-02-26T03:29:37;95659.91;;;11.33;54.06
7111;BME280;3597;42.650;23.386;2024-02-26T03:32:04;95661.34;;;11.28;54.60
7111;BME280;3597;42.650;23.386;2024-02-26T03:34:30;95660.94;;;11.35;54.43
7111;BME280;3597;42.650;23.386;2024-02-26T03:36:56;95654.84;;;11.20;55.55
7111;BME280;3597;42.650;23.386;2024-02-26T03:39:22;95666.53;;;11.26;55.80
7111;BME280;3597;42.650;23.386;2024-02-26T03:41:48;95665.03;;;11.25;55.96
7111;BME280;3597;42.650;23.386;2024-02-26T03:44:14;95661.94;;;11.12;56.53
7111;BME280;3597;42.650;23.386;2024-02-26T03:46:40;95660.41;;;11.06;56.96
7111;BME280;3597;42.650;23.386;2024-02-26T03:49:08;95665.84;;;11.06;57.48
7111;BME280;3597;42.650;23.386;2024-02-26T03:51:34;95662.38;;;11.05;57.45
7111;BME280;3597;42.650;23.386;2024-02-26T03:54:00;95662.56;;;11.02;57.63
7111;BME280;3597;42.650;23.386;2024-02-26T03:56:26;95666.81;;;11.03;57.72
7111;BME280;3597;42.650;23.386;2024-02-26T03:58:52;95668.06;;;11.07;57.50
7111;BME280;3597;42.650;23.386;2024-02-26T04:01:18;95664.34;;;11.05;58.34
7111;BME280;3597;42.650;23.386;2024-02-26T04:03:44;95655.88;;;10.97;57.97
7111;BME280;3597;42.650;23.386;2024-02-26T04:06:10;95675.91;;;10.99;58.95
7111;BME280;3597;42.650;23.386;2024-02-26T04:08:36;95674.66;;;10.95;58.50
7111;BME280;3597;42.650;23.386;2024-02-26T04:11:03;95651.56;;;10.90;58.13
7111;BME280;3597;42.650;23.386;2024-02-26T04:13:36;95662.31;;;10.99;57.86
7111;BME280;3597;42.650;23.386;2024-02-26T04:16:07;95653.28;;;10.88;58.06
7111;BME280;3597;42.650;23.386;2024-02-26T04:18:33;95647.56;;;10.86;58.07
7111;BME280;3597;42.650;23.386;2024-02-26T04:20:58;95646.19;;;10.96;58.21
7111;BME280;3597;42.650;23.386;2024-02-26T04:23:24;95660.41;;;11.06;58.30
7111;BME280;3597;42.650;23.386;2024-02-26T04:25:50;95657.44;;;11.09;58.13
7111;BME280;3597;42.650;23.386;2024-02-26T04:28:18;95642.94;;;10.92;58.42
7111;BME280;3597;42.650;23.386;2024-02-26T04:30:47;95645.13;;;10.88;58.85
7111;BME280;3597;42.650;23.386;2024-02-26T04:33:13;95650.06;;;10.89;58.67
7111;BME280;3597;42.650;23.386;2024-02-26T04:35:39;95662.81;;;10.78;58.63
7111;BME280;3597;42.650;23.386;2024-02-26T04:38:05;95649.09;;;10.67;59.07
7111;BME280;3597;42.650;23.386;2024-02-26T04:40:30;95661.78;;;10.75;59.39
7111;BME280;3597;42.650;23.386;2024-02-26T04:42:56;95634.94;;;10.63;59.75
7111;BME280;3597;42.650;23.386;2024-02-26T04:45:22;95652.09;;;10.69;59.95
7111;BME280;3597;42.650;23.386;2024-02-26T04:47:48;95654.94;;;10.80;59.85
7111;BME280;3597;42.650;23.386;2024-02-26T04:50:14;95661.28;;;10.71;60.00
7111;BME280;3597;42.650;23.386;2024-02-26T04:52:39;95620.88;;;10.44;59.71
7111;BME280;3597;42.650;23.386;2024-02-26T04:55:05;95645.22;;;10.53;60.25
7111;BME280;3597;42.650;23.386;2024-02-26T04:57:31;95669.34;;;10.66;59.75
7111;BME280;3597;42.650;23.386;2024-02-26T04:59:56;95659.31;;;10.72;59.59
7111;BME280;3597;42.650;23.386;2024-02-26T05:02:22;95666.16;;;10.67;59.04
7111;BME280;3597;42.650;23.386;2024-02-26T05:04:48;95657.59;;;10.54;59.53
7111;BME280;3597;42.650;23.386;2024-02-26T05:07:15;95669.00;;;10.58;59.68
7111;BME280;3597;42.650;23.386;2024-02-26T05:09:43;95666.53;;;10.54;59.26
7111;BME280;3597;42.650;23.386;2024-02-26T05:12:09;95654.38;;;10.55;58.89
7111;BME280;3597;42.650;23.386;2024-02-26T05:14:35;95680.78;;;10.70;59.04
7111;BME280;3597;42.650;23.386;2024-02-26T05:17:00;95677.75;;;10.62;58.62
7111;BME280;3597;42.650;23.386;2024-02-26T05:19:26;95678.13;;;10.75;58.65
7111;BME280;3597;42.650;23.386;2024-02-26T05:21:52;95679.69;;;10.82;57.66
7111;BME280;3597;42.650;23.386;2024-02-26T05:24:18;95662.16;;;10.63;57.98
7111;BME280;3597;42.650;23.386;2024-02-26T05:26:45;95667.78;;;10.59;57.30
7111;BME280;3597;42.650;23.386;2024-02-26T05:29:10;95682.41;;;10.82;56.99
7111;BME280;3597;42.650;23.386;2024-02-26T05:31:36;95677.59;;;10.71;57.29
7111;BME280;3597;42.650;23.386;2024-02-26T05:34:02;95679.00;;;10.87;56.74
7111;BME280;3597;42.650;23.386;2024-02-26T05:36:28;95686.34;;;11.01;56.19
7111;BME280;3597;42.650;23.386;2024-02-26T05:38:59;95663.47;;;10.93;55.69
7111;BME280;3597;42.650;23.386;2024-02-26T05:41:25;95673.81;;;10.89;55.83
7111;BME280;3597;42.650;23.386;2024-02-26T05:43:52;95689.59;;;11.05;56.13
7111;BME280;3597;42.650;23.386;2024-02-26T05:46:19;95704.31;;;11.13;55.60
7111;BME280;3597;42.650;23.386;2024-02-26T05:48:47;95687.84;;;11.02;55.91
7111;BME280;3597;42.650;23.386;2024-02-26T05:51:13;95703.75;;;11.09;56.14
7111;BME280;3597;42.650;23.386;2024-02-26T05:53:40;95687.69;;;11.11;55.76
7111;BME280;3597;42.650;23.386;2024-02-26T05:56:06;95706.78;;;11.17;55.83
7111;BME280;3597;42.650;23.386;2024-02-26T05:58:32;95658.59;;;10.97;55.63
7111;BME280;3597;42.650;23.386;2024-02-26T06:00:57;95691.34;;;11.08;55.31
7111;BME280;3597;42.650;23.386;2024-02-26T06:03:23;95716.00;;;11.19;55.65
7111;BME280;3597;42.650;23.386;2024-02-26T06:05:48;95698.91;;;11.19;55.62
7111;BME280;3597;42.650;23.386;2024-02-26T06:08:14;95713.44;;;11.36;54.87
7111;BME280;3597;42.650;23.386;2024-02-26T06:10:40;95692.56;;;11.27;54.94
7111;BME280;3597;42.650;23.386;2024-02-26T06:13:05;95701.59;;;11.39;54.90
7111;BME280;3597;42.650;23.386;2024-02-26T06:15:31;95693.25;;;11.22;55.34
7111;BME280;3597;42.650;23.386;2024-02-26T06:17:57;95711.97;;;11.41;54.80
7111;BME280;3597;42.650;23.386;2024-02-26T06:20:22;95723.00;;;11.52;54.84
7111;BME280;3597;42.650;23.386;2024-02-26T06:22:48;95711.03;;;11.44;54.88
7111;BME280;3597;42.650;23.386;2024-02-26T06:25:14;95716.78;;;11.51;54.90
7111;BME280;3597;42.650;23.386;2024-02-26T06:27:39;95720.84;;;11.61;54.67
7111;BME280;3597;42.650;23.386;2024-02-26T06:30:05;95729.78;;;11.62;55.04
7111;BME280;3597;42.650;23.386;2024-02-26T06:32:31;95722.53;;;11.53;55.05
7111;BME280;3597;42.650;23.386;2024-02-26T06:34:57;95732.78;;;11.64;55.32
7111;BME280;3597;42.650;23.386;2024-02-26T06:37:22;95739.63;;;11.80;55.86
7111;BME280;3597;42.650;23.386;2024-02-26T06:39:48;95737.97;;;11.88;55.17
7111;BME280;3597;42.650;23.386;2024-02-26T06:42:14;95740.72;;;11.93;55.17
7111;BME280;3597;42.650;23.386;2024-02-26T06:44:39;95732.22;;;11.80;54.50
7111;BME280;3597;42.650;23.386;2024-02-26T06:47:05;95743.72;;;11.95;53.55
7111;BME280;3597;42.650;23.386;2024-02-26T06:49:31;95734.59;;;11.98;52.87
7111;BME280;3597;42.650;23.386;2024-02-26T06:51:56;95746.00;;;12.02;53.30
7111;BME280;3597;42.650;23.386;2024-02-26T06:54:22;95756.84;;;12.23;53.75
7111;BME280;3597;42.650;23.386;2024-02-26T06:56:48;95760.38;;;12.34;53.05
7111;BME280;3597;42.650;23.386;2024-02-26T06:59:13;95752.19;;;12.34;53.81
7111;BME280;3597;42.650;23.386;2024-02-26T07:01:42;95761.75;;;12.50;53.70
7111;BME280;3597;42.650;23.386;2024-02-26T07:04:08;95744.81;;;12.40;53.61
7111;BME280;3597;42.650;23.386;2024-02-26T07:06:34;95753.59;;;12.61;53.04
7111;BME280;3597;42.650;23.386;2024-02-26T07:08:59;95748.94;;;12.67;52.92
7111;BME280;3597;42.650;23.386;2024-02-26T07:11:25;95758.41;;;12.77;51.39
7111;BME280;3597;42.650;23.386;2024-02-26T07:13:50;95758.94;;;12.87;52.18
7111;BME280;3597;42.650;23.386;2024-02-26T07:16:16;95743.63;;;13.01;51.82
7111;BME280;3597;42.650;23.386;2024-02-26T07:18:42;95755.56;;;13.09;51.99
7111;BME280;3597;42.650;23.386;2024-02-26T07:21:09;95741.16;;;13.08;51.65
7111;BME280;3597;42.650;23.386;2024-02-26T07:23:35;95751.44;;;13.24;52.33
7111;BME280;3597;42.650;23.386;2024-02-26T07:26:00;95749.94;;;13.29;50.17
7111;BME280;3597;42.650;23.386;2024-02-26T07:28:26;95752.19;;;13.36;50.31
7111;BME280;3597;42.650;23.386;2024-02-26T07:30:52;95745.75;;;13.45;49.67
7111;BME280;3597;42.650;23.386;2024-02-26T07:33:17;95742.78;;;13.48;50.19
7111;BME280;3597;42.650;23.386;2024-02-26T07:35:43;95726.16;;;13.57;48.94
7111;BME280;3597;42.650;23.386;2024-02-26T07:38:08;95741.31;;;13.70;47.26
7111;BME280;3597;42.650;23.386;2024-02-26T07:40:34;95743.81;;;13.73;49.15
7111;BME280;3597;42.650;23.386;2024-02-26T07:43:00;95728.16;;;13.68;48.32
7111;BME280;3597;42.650;23.386;2024-02-26T07:45:25;95757.25;;;13.88;48.83
7111;BME280;3597;42.650;23.386;2024-02-26T07:47:51;95735.63;;;13.79;49.29
7111;BME280;3597;42.650;23.386;2024-02-26T07:50:17;95732.16;;;13.84;48.04
7111;BME280;3597;42.650;23.386;2024-02-26T07:52:44;95727.66;;;13.97;46.93
7111;BME280;3597;42.650;23.386;2024-02-26T07:55:10;95729.16;;;14.04;46.49
7111;BME280;3597;42.650;23.386;2024-02-26T07:57:36;95706.78;;;13.83;46.12
7111;BME280;3597;42.650;23.386;2024-02-26T08:00:03;95735.88;;;14.09;45.66
7111;BME280;3597;42.650;23.386;2024-02-26T08:02:28;95742.38;;;14.11;46.58
7111;BME280;3597;42.650;23.386;2024-02-26T08:04:54;95750.06;;;14.35;45.36
7111;BME280;3597;42.650;23.386;2024-02-26T08:07:20;95750.06;;;14.35;44.86
7111;BME280;3597;42.650;23.386;2024-02-26T08:09:48;95734.88;;;14.28;44.48
7111;BME280;3597;42.650;23.386;2024-02-26T08:12:14;95743.09;;;14.45;44.36
7111;BME280;3597;42.650;23.386;2024-02-26T08:14:40;95747.56;;;14.54;43.71
7111;BME280;3597;42.650;23.386;2024-02-26T08:17:06;95749.03;;;14.55;43.59
7111;BME280;3597;42.650;23.386;2024-02-26T08:19:31;95751.28;;;14.62;44.42
7111;BME280;3597;42.650;23.386;2024-02-26T08:21:57;95738.59;;;14.53;44.33
7111;BME280;3597;42.650;23.386;2024-02-26T08:24:23;95730.13;;;14.57;43.62
7111;BME280;3597;42.650;23.386;2024-02-26T08:26:49;95724.88;;;14.70;44.04
7111;BME280;3597;42.650;23.386;2024-02-26T08:29:14;95738.25;;;14.85;42.58
7111;BME280;3597;42.650;23.386;2024-02-26T08:31:40;95742.19;;;15.00;43.32
7111;BME280;3597;42.650;23.386;2024-02-26T08:34:06;95734.75;;;14.90;42.33
7111;BME280;3597;42.650;23.386;2024-02-26T08:36:33;95761.09;;;15.09;43.05
7111;BME280;3597;42.650;23.386;2024-02-26T08:39:00;95751.31;;;15.25;44.02
7111;BME280;3597;42.650;23.386;2024-02-26T08:41:25;95734.13;;;15.19;41.74
7111;BME280;3597;42.650;23.386;2024-02-26T08:43:51;95722.91;;;15.23;41.95
7111;BME280;3597;42.650;23.386;2024-02-26T08:46:17;95748.91;;;15.57;43.56
7111;BME280;3597;42.650;23.386;2024-02-26T08:48:44;95738.22;;;15.54;40.71
7111;BME280;3597;42.650;23.386;2024-02-26T08:51:09;95738.19;;;15.59;40.60
7111;BME280;3597;42.650;23.386;2024-02-26T08:53:36;95751.91;;;15.59;41.40
7111;BME280;3597;42.650;23.386;2024-02-26T08:56:02;95739.97;;;15.57;41.67
7111;BME280;3597;42.650;23.386;2024-02-26T08:58:28;95745.88;;;15.66;41.16
7111;BME280;3597;42.650;23.386;2024-02-26T09:00:54;95731.69;;;15.62;40.21
7111;BME280;3597;42.650;23.386;2024-02-26T09:03:20;95728.13;;;15.73;39.46
7111;BME280;3597;42.650;23.386;2024-02-26T09:05:45;95736.47;;;15.92;40.94
7111;BME280;3597;42.650;23.386;2024-02-26T09:08:11;95737.75;;;15.91;40.64
7111;BME280;3597;42.650;23.386;2024-02-26T09:10:38;95721.50;;;15.93;41.27
7111;BME280;3597;42.650;23.386;2024-02-26T09:13:04;95724.34;;;16.11;39.92
7111;BME280;3597;42.650;23.386;2024-02-26T09:15:29;95719.13;;;16.08;38.69
7111;BME280;3597;42.650;23.386;2024-02-26T09:17:55;95702.09;;;16.15;39.97
7111;BME280;3597;42.650;23.386;2024-02-26T09:20:21;95717.91;;;16.33;38.60
7111;BME280;3597;42.650;23.386;2024-02-26T09:22:47;95707.13;;;16.35;37.98
7111;BME280;3597;42.650;23.386;2024-02-26T09:25:14;95734.00;;;16.48;38.63
7111;BME280;3597;42.650;23.386;2024-02-26T09:27:42;95730.69;;;16.55;39.03
7111;BME280;3597;42.650;23.386;2024-02-26T09:30:11;95725.94;;;16.55;38.29
7111;BME280;3597;42.650;23.386;2024-02-26T09:32:37;95727.94;;;16.55;38.65
7111;BME280;3597;42.650;23.386;2024-02-26T09:35:04;95706.69;;;16.55;37.79
7111;BME280;3597;42.650;23.386;2024-02-26T09:37:29;95711.06;;;16.70;37.63
7111;BME280;3597;42.650;23.386;2024-02-26T09:39:55;95716.13;;;16.84;39.18
7111;BME280;3597;42.650;23.386;2024-02-26T09:42:25;95701.88;;;16.86;38.08
7111;BME280;3597;42.650;23.386;2024-02-26T09:44:54;95714.31;;;16.92;37.90
7111;BME280;3597;42.650;23.386;2024-02-26T09:47:26;95698.47;;;16.80;36.77
7111;BME280;3597;42.650;23.386;2024-02-26T09:49:55;95706.28;;;16.94;37.75
7111;BME280;3597;42.650;23.386;2024-02-26T09:52:21;95688.25;;;16.99;37.34
7111;BME280;3597;42.650;23.386;2024-02-26T09:54:49;95716.19;;;17.22;36.54
7111;BME280;3597;42.650;23.386;2024-02-26T09:57:15;95701.09;;;16.91;34.90
7111;BME280;3597;42.650;23.386;2024-02-26T09:59:43;95697.22;;;16.81;37.41
7111;BME280;3597;42.650;23.386;2024-02-26T10:02:12;95692.63;;;16.89;35.85
7111;BME280;3597;42.650;23.386;2024-02-26T10:04:42;95704.88;;;16.88;35.49
7111;BME280;3597;42.650;23.386;2024-02-26T10:07:12;95701.69;;;16.84;36.78
7111;BME280;3597;42.650;23.386;2024-02-26T10:09:38;95688.13;;;16.86;35.31
7111;BME280;3597;42.650;23.386;2024-02-26T10:12:05;95689.03;;;16.75;35.80
7111;BME280;3597;42.650;23.386;2024-02-26T10:14:32;95706.47;;;16.78;35.73
7111;BME280;3597;42.650;23.386;2024-02-26T10:16:59;95682.31;;;16.71;36.76
7111;BME280;3597;42.650;23.386;2024-02-26T10:19:27;95705.28;;;16.73;34.98
7111;BME280;3597;42.650;23.386;2024-02-26T10:21:58;95674.59;;;16.69;36.39
7111;BME280;3597;42.650;23.386;2024-02-26T10:24:28;95674.47;;;16.80;35.50
7111;BME280;3597;42.650;23.386;2024-02-26T10:26:55;95691.00;;;16.99;34.29
7111;BME280;3597;42.650;23.386;2024-02-26T10:29:23;95697.00;;;16.97;35.13
7111;BME280;3597;42.650;23.386;2024-02-26T10:31:50;95697.88;;;16.87;35.22
7111;BME280;3597;42.650;23.386;2024-02-26T10:34:16;95683.47;;;16.81;35.94
7111;BME280;3597;42.650;23.386;2024-02-26T10:36:42;95681.38;;;16.87;33.43
7111;BME280;3597;42.650;23.386;2024-02-26T10:39:09;95687.41;;;16.85;34.01
7111;BME280;3597;42.650;23.386;2024-02-26T10:41:37;95677.00;;;16.54;34.78
7111;BME280;3597;42.650;23.386;2024-02-26T10:44:03;95694.81;;;16.47;34.69
7111;BME280;3597;42.650;23.386;2024-02-26T10:46:29;95684.59;;;16.42;36.10
7111;BME280;3597;42.650;23.386;2024-02-26T10:48:56;95691.13;;;16.39;34.27
7111;BME280;3597;42.650;23.386;2024-02-26T10:51:29;95680.16;;;16.39;35.18
7111;BME280;3597;42.650;23.386;2024-02-26T10:53:57;95684.97;;;16.57;34.39
7111;BME280;3597;42.650;23.386;2024-02-26T10:56:28;95673.97;;;16.57;34.12
7111;BME280;3597;42.650;23.386;2024-02-26T10:58:55;95671.56;;;16.73;33.80
7111;BME280;3597;42.650;23.386;2024-02-26T11:01:22;95672.13;;;16.90;34.98
7111;BME280;3597;42.650;23.386;2024-02-26T11:03:51;95669.06;;;16.93;34.07
7111;BME280;3597;42.650;23.386;2024-02-26T11:06:18;95657.47;;;16.82;33.55
7111;BME280;3597;42.650;23.386;2024-02-26T11:08:44;95663.47;;;16.80;34.81
7111;BME280;3597;42.650;23.386;2024-02-26T11:11:13;95685.13;;;17.08;35.53
7111;BME280;3597;42.650;23.386;2024-02-26T11:13:42;95678.22;;;17.20;34.49
7111;BME280;3597;42.650;23.386;2024-02-26T11:16:11;95673.59;;;17.28;33.92
7111;BME280;3597;42.650;23.386;2024-02-26T11:18:39;95659.41;;;17.24;33.69
7111;BME280;3597;42.650;23.386;2024-02-26T11:21:07;95678.66;;;17.24;33.46
7111;BME280;3597;42.650;23.386;2024-02-26T11:23:34;95659.69;;;17.21;34.90
7111;BME280;3597;42.650;23.386;2024-02-26T11:26:03;95661.03;;;16.95;34.57
7111;BME280;3597;42.650;23.386;2024-02-26T11:28:32;95629.00;;;16.79;34.93
7111;BME280;3597;42.650;23.386;2024-02-26T11:31:00;95668.31;;;16.93;35.07
7111;BME280;3597;42.650;23.386;2024-02-26T11:33:28;95668.16;;;16.85;33.88
7111;BME280;3597;42.650;23.386;2024-02-26T11:35:55;95641.56;;;16.75;34.66
7111;BME280;3597;42.650;23.386;2024-02-26T11:38:22;95646.25;;;16.80;35.07
7111;BME280;3597;42.650;23.386;2024-02-26T11:40:50;95664.03;;;16.97;34.48
7111;BME280;3597;42.650;23.386;2024-02-26T11:43:16;95661.00;;;16.77;35.37
7111;BME280;3597;42.650;23.386;2024-02-26T11:48:22;95657.00;;;16.53;35.54
7111;BME280;3597;42.650;23.386;2024-02-26T11:50:50;95668.97;;;16.56;36.07
7111;BME280;3597;42.650;23.386;2024-02-26T11:53:30;95665.47;;;16.80;36.25
7111;BME280;3597;42.650;23.386;2024-02-26T11:59:03;95666.84;;;16.92;35.64
7111;BME280;3597;42.650;23.386;2024-02-26T12:01:37;95674.28;;;16.97;35.39
7111;BME280;3597;42.650;23.386;2024-02-26T12:04:25;95649.97;;;16.82;35.52
7111;BME280;3597;42.650;23.386;2024-02-26T12:06:53;95666.69;;;17.03;36.68
7111;BME280;3597;42.650;23.386;2024-02-26T12:09:36;95659.69;;;17.02;35.92
7111;BME280;3597;42.650;23.386;2024-02-26T12:12:04;95633.94;;;17.05;36.17
7111;BME280;3597;42.650;23.386;2024-02-26T12:14:33;95633.56;;;17.14;35.63
7111;BME280;3597;42.650;23.386;2024-02-26T12:16:59;95647.34;;;17.27;35.55
7111;BME280;3597;42.650;23.386;2024-02-26T12:19:27;95643.56;;;17.30;35.43
7111;BME280;3597;42.650;23.386;2024-02-26T12:21:53;95655.31;;;17.50;35.21
7111;BME280;3597;42.650;23.386;2024-02-26T12:24:20;95648.38;;;17.62;35.08
7111;BME280;3597;42.650;23.386;2024-02-26T12:26:46;95636.94;;;17.39;35.44
7111;BME280;3597;42.650;23.386;2024-02-26T12:29:12;95658.44;;;17.40;35.02
7111;BME280;3597;42.650;23.386;2024-02-26T12:31:40;95641.13;;;17.08;34.86
7111;BME280;3597;42.650;23.386;2024-02-26T12:34:06;95653.75;;;16.98;34.68
7111;BME280;3597;42.650;23.386;2024-02-26T12:36:36;95644.31;;;16.93;36.16
7111;BME280;3597;42.650;23.386;2024-02-26T12:39:04;95660.81;;;16.93;33.94
7111;BME280;3597;42.650;23.386;2024-02-26T12:41:34;95660.88;;;16.88;34.54
7111;BME280;3597;42.650;23.386;2024-02-26T12:44:00;95658.50;;;16.79;36.17
7111;BME280;3597;42.650;23.386;2024-02-26T12:46:26;95640.09;;;16.74;34.28
7111;BME280;3597;42.650;23.386;2024-02-26T12:48:52;95632.06;;;16.51;35.05
7111;BME280;3597;42.650;23.386;2024-02-26T12:51:19;95651.00;;;16.55;34.94
7111;BME280;3597;42.650;23.386;2024-02-26T12:53:45;95642.66;;;16.42;35.31
7111;BME280;3597;42.650;23.386;2024-02-26T12:56:11;95645.13;;;16.45;35.58
7111;BME280;3597;42.650;23.386;2024-02-26T12:58:39;95630.75;;;16.34;35.39
7111;BME280;3597;42.650;23.386;2024-02-26T13:01:06;95650.44;;;16.38;35.93
7111;BME280;3597;42.650;23.386;2024-02-26T13:03:35;95652.19;;;16.41;35.30
7111;BME280;3597;42.650;23.386;2024-02-26T13:06:02;95662.53;;;16.29;36.30
7111;BME280;3597;42.650;23.386;2024-02-26T13:08:29;95642.09;;;16.24;35.92
7111;BME280;3597;42.650;23.386;2024-02-26T13:10:55;95663.19;;;16.59;35.72
7111;BME280;3597;42.650;23.386;2024-02-26T13:13:22;95659.59;;;16.70;35.35
7111;BME280;3597;42.650;23.386;2024-02-26T13:15:47;95648.44;;;16.62;36.02